Mc Kellar Sipes Regional Airport
KMKL : rendu visible

Aérodrome :











RETROUVEZ-NOUS SUR...

 
LOGIN :

S'inscrire | Disclaimer

   EN    FR    IT 

 









Légende :    VFR   VFR Marginal   IFR   IFR Intensif   IFR Très Intensif
Visi : 
Plafond : 
>= 8 km
>= 3000ft
5 à 8 km
1000 à 3000 ft
1500m à 5 km
500 à 1000 ft
800 à 1500m
200 à 500 ft
< 800m
< 200 ft
Symboles :   Orages  Brouillard  Fortes neiges  Fortes précipitations  Vent > 20 kt






- Altitude de l'aérodrome : 434 ft
- Code IATA : MKL


KMKL - Mc Kellar Sipes Regional

DERNIER METAR :
  • 121753Z 35011KT 10SM CLR M04/M10 A3053 RMK AO2 SLP344 T10391100 11033 21078 58009

METARs EXPIRÉS :
  • 121653Z 36012KT 10SM FEW029 M04/M11 A3056 RMK AO2 SLP352 T10441106
  • 121553Z 36014KT 10SM FEW027 M06/M11 A3056 RMK AO2 SLP353 T10561111

TAF KMKL
Valide du 12 à 18h jusqu'au 13 à 18h UTC


121731Z 1218/1318 36012G19KT P6SM SCT035
FM122300 36010KT P6SM SKC
FM130600 VRB03KT P6SM SKC
FM131700 16005KT P6SM SKC



MET'MAP, la Météo Aéronautique d'un coup d'oeil ! - Copyright ORBIFLY Décembre 2007 - Disclaimer

ORBIFLY MET'MAP TEAM :

Programmation & Développement : Alexandra Zaïnal
Conception & Développement : Baudouin d'Aumeries
Co-Programmation & Développement : Marc-Olivier Méhu
Soutien technique & logistique : Manuel Goepfert

Contact : metmap@orbifly.com




SOURCES & CREDITS :

   NOAA       Earth
Advisory